Time;durP1;ratioP1;P1;durP2;ratioP2;P2;SDS_P1;SDS_P2;PMS_P1;PMS_P2;Temp;Humidity;BMP_temperature;BMP_pressure;BME280_temperature;BME280_humidity;BME280_pressure;Samples;Min_cycle;Max_cycle;Signal;HPM_P1;HPM_P2
2023/01/29 00:02:25;;;;;;;10.93;7.90;;;-1.50;99.90;;;;;;6146385;23;20430;-70
2023/01/29 00:04:58;;;;;;;11.77;7.10;;;-1.50;99.90;;;;;;6145728;23;20415;-70
2023/01/29 00:07:25;;;;;;;27.90;11.43;;;-1.50;99.90;;;;;;6140139;23;20426;-70
2023/01/29 00:09:53;;;;;;;17.57;9.50;;;-1.60;99.90;;;;;;6141422;23;20460;-71
2023/01/29 00:12:20;;;;;;;15.83;8.87;;;-1.50;99.90;;;;;;6145093;23;20505;-70
2023/01/29 00:14:47;;;;;;;15.67;9.60;;;-1.60;99.90;;;;;;6150430;23;20403;-71
2023/01/29 00:17:14;;;;;;;16.50;8.87;;;-1.50;99.90;;;;;;6139814;23;20490;-71
2023/01/29 00:19:42;;;;;;;19.90;8.03;;;-1.40;99.90;;;;;;6144066;23;20381;-71
2023/01/29 00:22:10;;;;;;;30.20;9.13;;;-1.40;99.90;;;;;;6144849;23;20533;-71
2023/01/29 00:24:37;;;;;;;16.13;7.87;;;-1.30;99.90;;;;;;6142896;23;20405;-71
2023/01/29 00:27:05;;;;;;;19.77;8.83;;;-1.20;99.90;;;;;;6095620;23;20899;-71
2023/01/29 00:29:31;;;;;;;21.93;12.30;;;-1.30;99.90;;;;;;6144227;23;20407;-71
2023/01/29 00:31:58;;;;;;;15.40;9.90;;;-1.40;99.90;;;;;;6145096;23;20438;-72
2023/01/29 00:34:25;;;;;;;33.87;12.80;;;-1.50;99.90;;;;;;6145507;23;20505;-71
2023/01/29 00:37:05;;;;;;;16.33;9.33;;;-1.40;99.90;;;;;;6145157;23;20701;-71
2023/01/29 00:39:37;;;;;;;11.83;8.93;;;-1.50;99.90;;;;;;6147709;23;20391;-70
2023/01/29 00:44:58;;;;;;;10.37;8.20;;;-1.50;99.90;;;;;;6146993;23;20429;-71
2023/01/29 00:47:32;;;;;;;19.53;10.20;;;-1.50;99.90;;;;;;6148594;23;20421;-71
2023/01/29 00:49:59;;;;;;;23.67;8.90;;;-1.50;99.90;;;;;;6146058;23;20758;-71
2023/01/29 00:52:28;;;;;;;16.80;10.17;;;-1.60;99.90;;;;;;6144382;23;20490;-71
2023/01/29 00:54:59;;;;;;;15.33;8.40;;;-1.70;99.90;;;;;;6156104;23;20413;-74
2023/01/29 00:57:28;;;;;;;24.37;12.20;;;-1.70;99.90;;;;;;6148951;23;20439;-72
2023/01/29 00:59:55;;;;;;;15.83;9.77;;;-1.80;99.90;;;;;;6150239;23;20485;-71
2023/01/29 01:05:16;;;;;;;12.20;8.73;;;-1.80;99.90;;;;;;6152217;23;20390;-72
2023/01/29 01:07:45;;;;;;;31.67;8.87;;;-1.80;99.90;;;;;;6156691;23;20391;-72
2023/01/29 01:10:19;;;;;;;21.57;11.53;;;-1.70;99.90;;;;;;6155642;23;20404;-72
2023/01/29 01:12:47;;;;;;;16.37;9.03;;;-1.70;99.90;;;;;;6144955;23;20422;-72
2023/01/29 01:15:14;;;;;;;19.77;12.27;;;-1.60;99.90;;;;;;6147362;23;20469;-72
2023/01/29 01:17:41;;;;;;;14.33;9.93;;;-1.60;99.90;;;;;;6145950;23;20414;-71
2023/01/29 01:20:10;;;;;;;12.27;7.00;;;-1.60;99.90;;;;;;6145390;23;20449;-71
2023/01/29 01:22:37;;;;;;;18.13;7.60;;;-1.50;99.90;;;;;;6148416;23;20950;-72
2023/01/29 01:25:04;;;;;;;16.07;9.53;;;-1.60;99.90;;;;;;6145293;23;20410;-71
2023/01/29 01:27:33;;;;;;;18.53;10.40;;;-1.60;99.90;;;;;;6146880;23;20498;-71
2023/01/29 01:30:00;;;;;;;9.50;8.70;;;-1.80;99.90;;;;;;6145284;23;20407;-71
2023/01/29 01:32:27;;;;;;;15.20;6.13;;;-2.10;99.90;;;;;;6153178;23;20536;-73
2023/01/29 01:34:55;;;;;;;24.40;8.33;;;-2.20;99.90;;;;;;6142865;23;20418;-71
2023/01/29 01:37:23;;;;;;;23.60;9.10;;;-2.20;99.90;;;;;;6146504;23;20486;-71
2023/01/29 01:39:50;;;;;;;14.93;5.97;;;-2.10;99.90;;;;;;6146168;23;20512;-70
2023/01/29 01:42:17;;;;;;;13.50;7.07;;;-2.00;99.90;;;;;;6147071;23;20771;-71
2023/01/29 01:45:09;;;;;;;16.00;9.87;;;-2.00;99.90;;;;;;6137330;23;20415;-70
2023/01/29 01:47:40;;;;;;;15.83;6.83;;;-1.90;99.90;;;;;;6141147;23;20430;-72
2023/01/29 01:50:12;;;;;;;16.07;10.10;;;-1.70;99.90;;;;;;6144649;23;20513;-72
2023/01/29 01:52:45;;;;;;;14.50;7.60;;;-1.70;99.90;;;;;;6145690;23;20481;-71
2023/01/29 01:55:14;;;;;;;18.20;7.57;;;-1.70;99.90;;;;;;6145555;23;20461;-72
2023/01/29 01:57:43;;;;;;;23.93;8.83;;;-1.80;99.90;;;;;;6145921;23;20417;-71
2023/01/29 02:00:16;;;;;;;19.90;10.50;;;-1.70;99.90;;;;;;6142752;23;20474;-72
2023/01/29 02:11:06;;;;;;;22.57;9.23;;;-1.70;99.90;;;;;;6149809;23;20392;-71
2023/01/29 02:13:34;;;;;;;18.53;11.83;;;-1.80;99.90;;;;;;6145847;23;20490;-71
2023/01/29 02:16:02;;;;;;;16.97;10.47;;;-1.80;99.90;;;;;;6144830;23;20502;-71
2023/01/29 02:18:29;;;;;;;13.33;8.43;;;-1.70;99.90;;;;;;6142064;23;20389;-71
2023/01/29 02:21:15;;;;;;;20.33;7.23;;;-1.90;99.90;;;;;;6147054;23;20450;-72
2023/01/29 02:24:20;;;;;;;15.50;8.83;;;-1.90;99.90;;;;;;6145050;23;20425;-72
2023/01/29 02:26:58;;;;;;;19.30;9.57;;;-1.70;99.90;;;;;;6121832;23;20828;-72
2023/01/29 02:29:34;;;;;;;21.93;8.77;;;-1.70;99.90;;;;;;6147557;23;20394;-73
2023/01/29 02:32:13;;;;;;;16.77;8.00;;;-1.70;99.90;;;;;;6149265;23;20418;-72
2023/01/29 02:37:38;;;;;;;15.97;11.93;;;-1.60;99.90;;;;;;6147027;23;20382;-72
2023/01/29 02:40:13;;;;;;;18.70;10.83;;;-1.50;99.90;;;;;;6146760;23;20373;-72
2023/01/29 02:42:48;;;;;;;17.20;9.47;;;-1.50;99.90;;;;;;6142060;23;20445;-71
2023/01/29 02:45:22;;;;;;;16.87;8.57;;;-1.40;99.90;;;;;;6147506;23;20369;-73
2023/01/29 02:47:57;;;;;;;22.67;9.27;;;-1.30;99.90;;;;;;6153419;23;20416;-70
2023/01/29 02:50:31;;;;;;;17.60;8.27;;;-1.30;99.90;;;;;;6149290;23;20394;-70
2023/01/29 02:53:03;;;;;;;33.40;10.10;;;-1.20;99.90;;;;;;6148192;23;20465;-71
2023/01/29 02:55:35;;;;;;;20.10;10.40;;;-1.30;99.90;;;;;;6148627;23;20397;-71
2023/01/29 02:58:10;;;;;;;18.17;8.33;;;-1.30;99.90;;;;;;6148922;23;20570;-71
2023/01/29 03:00:41;;;;;;;16.03;8.90;;;-1.30;99.90;;;;;;6158939;23;20430;-72
2023/01/29 03:03:14;;;;;;;34.07;13.07;;;-1.20;99.90;;;;;;6149477;23;20392;-70
2023/01/29 03:05:49;;;;;;;19.00;10.83;;;-1.20;99.90;;;;;;6145815;23;20461;-72
2023/01/29 03:08:21;;;;;;;21.00;7.93;;;-1.10;99.90;;;;;;6149273;23;20399;-71
2023/01/29 03:10:54;;;;;;;21.00;10.40;;;-1.10;99.90;;;;;;6143937;23;21087;-71
2023/01/29 03:13:30;;;;;;;21.03;10.50;;;-1.10;99.90;;;;;;6146669;23;20818;-70
2023/01/29 03:16:04;;;;;;;16.23;9.40;;;-1.00;99.90;;;;;;6149323;23;21095;-71
2023/01/29 03:18:36;;;;;;;19.87;9.50;;;-1.00;99.90;;;;;;6097365;23;20402;-71
2023/01/29 03:21:49;;;;;;;24.27;7.77;;;-1.00;99.90;;;;;;6150246;23;20450;-72
2023/01/29 03:32:14;;;;;;;22.63;11.10;;;-1.00;99.90;;;;;;6143852;23;21129;-72
2023/01/29 03:34:46;;;;;;;25.13;9.83;;;-1.00;99.90;;;;;;6148870;23;21108;-71
2023/01/29 03:37:20;;;;;;;28.30;8.83;;;-1.00;99.90;;;;;;6147585;23;20405;-72
2023/01/29 03:39:47;;;;;;;21.20;11.53;;;-1.00;99.90;;;;;;6147228;23;20533;-72
2023/01/29 03:42:24;;;;;;;16.07;8.20;;;-1.00;99.90;;;;;;6146104;23;20459;-71
2023/01/29 03:44:58;;;;;;;24.93;12.83;;;-0.90;99.90;;;;;;6141886;23;20767;-71
2023/01/29 03:47:36;;;;;;;29.20;10.03;;;-0.90;99.90;;;;;;6147486;23;20395;-71
2023/01/29 03:50:08;;;;;;;22.70;11.10;;;-0.90;99.90;;;;;;6147146;23;20404;-71
2023/01/29 03:52:44;;;;;;;17.93;8.80;;;-0.90;99.90;;;;;;6119274;23;20958;-70
2023/01/29 03:55:16;;;;;;;22.17;11.53;;;-0.80;99.90;;;;;;6147316;23;20402;-70
2023/01/29 03:57:52;;;;;;;16.53;8.50;;;-0.80;99.90;;;;;;6148454;23;20498;-71
2023/01/29 04:00:22;;;;;;;20.33;7.70;;;-0.50;99.90;;;;;;6144730;23;20406;-71
2023/01/29 04:02:56;;;;;;;14.47;8.43;;;-0.50;99.90;;;;;;6148505;23;20450;-70
2023/01/29 04:05:29;;;;;;;30.27;11.87;;;-0.50;99.90;;;;;;6152165;23;20415;-71
2023/01/29 04:08:02;;;;;;;23.97;13.30;;;-0.50;99.90;;;;;;6143405;23;20397;-72
2023/01/29 04:10:31;;;;;;;22.23;11.87;;;-0.40;99.90;;;;;;6142289;23;20435;-71
2023/01/29 04:13:01;;;;;;;15.13;8.70;;;-0.30;99.90;;;;;;6143242;23;20967;-72
2023/01/29 04:15:34;;;;;;;24.60;11.10;;;-0.20;99.90;;;;;;6147530;23;20391;-72
2023/01/29 04:18:03;;;;;;;20.67;10.37;;;0.00;99.90;;;;;;6146186;23;20387;-72
2023/01/29 04:20:30;;;;;;;16.00;8.53;;;-0.10;99.90;;;;;;6144431;23;20493;-71
2023/01/29 04:22:57;;;;;;;16.90;10.83;;;-0.20;99.90;;;;;;6144283;23;20425;-72
2023/01/29 04:25:28;;;;;;;25.20;10.80;;;-0.10;99.90;;;;;;6142935;23;20509;-72
2023/01/29 04:28:04;;;;;;;12.23;6.90;;;-0.10;99.90;;;;;;6144836;23;20477;-70
2023/01/29 04:30:42;;;;;;;21.83;7.60;;;0.00;99.90;;;;;;6140473;23;20433;-72
2023/01/29 04:33:29;;;;;;;24.97;12.17;;;-0.10;99.90;;;;;;6144349;23;20489;-70
2023/01/29 04:36:10;;;;;;;19.87;11.97;;;-0.10;99.90;;;;;;6150785;23;20547;-70
2023/01/29 04:38:50;;;;;;;18.73;9.97;;;-0.10;99.90;;;;;;6139813;23;20486;-70
2023/01/29 04:41:22;;;;;;;15.97;6.70;;;0.00;99.90;;;;;;6149549;23;21113;-70
2023/01/29 04:43:58;;;;;;;19.50;9.10;;;0.00;99.90;;;;;;6142939;23;20465;-70
2023/01/29 04:46:31;;;;;;;19.13;8.60;;;-0.10;99.90;;;;;;6098113;23;20460;-71
2023/01/29 04:49:12;;;;;;;17.93;7.00;;;0.10;99.90;;;;;;6151301;23;20406;-70
2023/01/29 04:51:47;;;;;;;26.33;10.30;;;0.10;99.90;;;;;;6144256;23;20426;-71
2023/01/29 04:54:24;;;;;;;34.53;12.43;;;0.10;99.90;;;;;;6147407;23;20395;-71
2023/01/29 04:56:57;;;;;;;9.73;7.50;;;0.10;99.90;;;;;;6142584;23;20675;-70
2023/01/29 04:59:30;;;;;;;13.80;6.40;;;0.10;99.90;;;;;;6146638;23;20463;-71
2023/01/29 05:01:59;;;;;;;14.10;8.17;;;0.10;99.90;;;;;;6144624;23;20481;-71
2023/01/29 05:04:28;;;;;;;21.20;11.47;;;0.00;99.90;;;;;;6146060;23;20464;-71
2023/01/29 05:06:56;;;;;;;20.07;11.23;;;0.10;99.90;;;;;;6145884;23;20410;-71
2023/01/29 05:09:24;;;;;;;44.53;11.20;;;0.20;99.90;;;;;;6145111;23;20852;-71
2023/01/29 05:11:51;;;;;;;18.73;11.20;;;0.20;99.90;;;;;;6144705;23;21018;-70
2023/01/29 05:14:19;;;;;;;24.27;10.30;;;0.10;99.90;;;;;;6146904;23;20779;-71
2023/01/29 05:16:51;;;;;;;17.43;8.90;;;0.00;99.90;;;;;;6151877;23;20470;-70
2023/01/29 05:19:19;;;;;;;20.03;8.87;;;0.00;99.90;;;;;;6148524;23;20461;-71
2023/01/29 05:21:49;;;;;;;22.07;9.03;;;0.10;99.90;;;;;;6142308;23;20483;-70
2023/01/29 05:24:18;;;;;;;16.73;7.40;;;0.00;99.90;;;;;;6143447;23;20422;-71
2023/01/29 05:29:34;;;;;;;19.13;9.63;;;0.00;99.90;;;;;;6143415;23;20751;-72
2023/01/29 05:32:01;;;;;;;13.07;8.10;;;0.00;99.90;;;;;;6142305;23;20426;-70
2023/01/29 05:34:28;;;;;;;8.93;7.00;;;0.00;99.90;;;;;;6144929;23;20830;-71
2023/01/29 05:36:56;;;;;;;3.00;2.70;;;0.00;99.90;;;;;;6145222;23;21084;-70
2023/01/29 05:39:24;;;;;;;12.50;7.17;;;0.00;99.90;;;;;;6146618;23;20406;-71
2023/01/29 05:41:51;;;;;;;18.37;9.50;;;0.00;99.90;;;;;;6146190;23;20461;-71
2023/01/29 05:44:19;;;;;;;11.63;7.40;;;0.00;99.90;;;;;;6146934;23;20513;-72
2023/01/29 05:46:46;;;;;;;19.40;9.60;;;0.00;99.90;;;;;;6148001;23;20418;-72
2023/01/29 05:49:13;;;;;;;7.43;4.67;;;0.10;99.90;;;;;;6139379;23;20507;-71
2023/01/29 05:51:39;;;;;;;15.97;8.30;;;0.20;99.90;;;;;;6141362;23;20509;-71
2023/01/29 05:54:08;;;;;;;15.07;6.50;;;0.20;99.90;;;;;;6093138;23;20423;-72
2023/01/29 05:56:35;;;;;;;13.67;7.03;;;0.20;99.90;;;;;;6148018;23;21093;-72
2023/01/29 05:59:03;;;;;;;11.80;6.37;;;0.30;99.90;;;;;;6146287;23;20809;-71
2023/01/29 06:01:30;;;;;;;13.70;6.50;;;0.30;99.90;;;;;;6141187;23;20533;-71
2023/01/29 06:03:57;;;;;;;20.63;7.77;;;0.30;99.90;;;;;;6144521;23;20410;-72
2023/01/29 06:06:24;;;;;;;22.67;8.80;;;0.30;99.90;;;;;;6142496;23;21197;-72
2023/01/29 06:08:51;;;;;;;10.37;6.80;;;0.40;99.90;;;;;;6143952;23;20421;-72
2023/01/29 06:11:19;;;;;;;20.70;10.23;;;0.50;99.90;;;;;;6139536;23;20506;-70
2023/01/29 06:13:46;;;;;;;18.03;7.70;;;0.40;99.90;;;;;;6144342;23;20958;-70
2023/01/29 06:16:14;;;;;;;19.57;8.23;;;0.40;99.90;;;;;;6142180;23;20417;-72
2023/01/29 06:18:41;;;;;;;20.73;11.07;;;0.40;99.90;;;;;;6140410;23;20970;-71
2023/01/29 06:21:11;;;;;;;20.23;8.77;;;0.40;99.90;;;;;;6143245;23;20949;-72
2023/01/29 06:23:38;;;;;;;20.80;10.20;;;0.50;99.90;;;;;;6143999;23;20425;-71
2023/01/29 06:26:07;;;;;;;17.53;12.37;;;0.30;99.90;;;;;;6144295;23;20421;-72
2023/01/29 06:28:36;;;;;;;16.93;8.33;;;0.30;99.90;;;;;;6137963;23;20421;-70
2023/01/29 06:31:05;;;;;;;6.50;6.00;;;0.40;99.90;;;;;;6147831;23;20434;-70
2023/01/29 06:33:32;;;;;;;15.73;6.73;;;0.50;99.90;;;;;;6145891;23;20403;-72
2023/01/29 06:36:00;;;;;;;20.03;8.37;;;0.50;99.90;;;;;;6150218;23;20444;-72
2023/01/29 06:38:28;;;;;;;9.70;5.80;;;0.50;99.90;;;;;;6146912;23;20482;-72
2023/01/29 06:40:55;;;;;;;12.37;4.77;;;0.40;99.90;;;;;;6147012;23;20457;-72
2023/01/29 06:43:23;;;;;;;10.60;6.70;;;0.50;99.90;;;;;;6152014;23;20474;-72
2023/01/29 06:45:53;;;;;;;28.77;8.93;;;0.50;99.90;;;;;;6149467;23;20399;-71
2023/01/29 06:48:20;;;;;;;3.90;3.50;;;0.50;99.90;;;;;;6142600;23;20516;-72
2023/01/29 06:50:48;;;;;;;29.90;7.50;;;0.50;99.90;;;;;;6140184;23;21140;-71
2023/01/29 06:53:15;;;;;;;15.80;8.93;;;0.60;99.90;;;;;;6147532;23;20415;-71
2023/01/29 06:55:42;;;;;;;10.53;8.00;;;0.60;99.90;;;;;;6148363;23;20443;-72
2023/01/29 06:58:11;;;;;;;5.43;4.33;;;0.50;99.90;;;;;;6148422;23;20453;-71
2023/01/29 07:00:39;;;;;;;19.37;7.33;;;0.50;99.90;;;;;;6147629;23;20768;-73
2023/01/29 07:03:10;;;;;;;11.27;7.13;;;0.50;99.90;;;;;;6146069;23;20492;-72
2023/01/29 07:05:37;;;;;;;13.83;6.00;;;0.60;99.90;;;;;;6147246;23;20395;-72
2023/01/29 07:08:04;;;;;;;17.13;7.83;;;0.50;99.90;;;;;;6149811;23;20887;-72
2023/01/29 07:10:31;;;;;;;17.37;7.33;;;0.50;99.90;;;;;;6153360;23;20438;-72
2023/01/29 07:12:59;;;;;;;9.57;6.97;;;0.50;99.90;;;;;;6146457;23;20403;-71
2023/01/29 07:15:27;;;;;;;14.13;6.40;;;0.50;99.90;;;;;;6146640;23;20473;-72
2023/01/29 07:17:59;;;;;;;15.77;7.23;;;0.50;99.90;;;;;;6143221;23;20442;-72
2023/01/29 07:20:28;;;;;;;22.47;9.27;;;0.60;99.90;;;;;;6144459;23;20500;-71
2023/01/29 07:22:57;;;;;;;16.37;6.57;;;0.60;99.90;;;;;;6146515;23;20465;-75
2023/01/29 07:25:26;;;;;;;5.17;4.67;;;0.70;99.90;;;;;;6144232;23;20824;-72
2023/01/29 07:27:53;;;;;;;15.00;10.63;;;0.70;99.90;;;;;;6093877;23;20410;-71
2023/01/29 07:30:21;;;;;;;17.77;7.83;;;0.70;99.90;;;;;;6142183;23;20493;-71
2023/01/29 07:32:48;;;;;;;18.60;10.13;;;0.60;99.90;;;;;;6148248;23;20431;-71
2023/01/29 07:35:15;;;;;;;24.50;11.27;;;0.60;99.90;;;;;;6150220;23;20522;-72
2023/01/29 07:37:43;;;;;;;13.30;4.60;;;0.60;99.90;;;;;;6147203;23;20385;-70
2023/01/29 07:40:12;;;;;;;10.40;6.00;;;0.70;99.90;;;;;;6146841;23;20501;-69
2023/01/29 07:42:41;;;;;;;21.13;5.87;;;0.80;99.90;;;;;;6145871;23;20539;-70
2023/01/29 07:45:09;;;;;;;16.60;8.90;;;0.70;99.90;;;;;;6098113;23;20410;-70
2023/01/29 07:47:36;;;;;;;9.97;5.23;;;0.80;99.90;;;;;;6149926;23;20451;-70
2023/01/29 07:50:03;;;;;;;21.07;8.57;;;0.80;99.90;;;;;;6138073;23;20393;-71
2023/01/29 07:52:31;;;;;;;10.50;7.47;;;0.80;99.90;;;;;;6144343;23;20943;-70
2023/01/29 07:55:00;;;;;;;4.70;3.23;;;0.90;99.90;;;;;;6146224;23;20438;-71
2023/01/29 07:57:26;;;;;;;9.23;7.00;;;0.90;99.90;;;;;;6151093;23;20426;-71
2023/01/29 07:59:53;;;;;;;13.67;7.70;;;0.90;99.90;;;;;;6151595;23;20911;-71
2023/01/29 08:02:21;;;;;;;14.83;8.50;;;0.80;99.90;;;;;;6149407;23;20474;-70
2023/01/29 08:04:48;;;;;;;19.30;9.90;;;0.90;99.90;;;;;;6140741;23;20413;-71
2023/01/29 08:07:15;;;;;;;8.10;4.23;;;0.90;99.90;;;;;;6141626;23;20977;-71
2023/01/29 08:09:42;;;;;;;10.13;6.87;;;0.90;99.90;;;;;;6139714;23;20797;-71
2023/01/29 08:12:10;;;;;;;15.40;11.63;;;0.90;99.90;;;;;;6144897;23;20476;-71
2023/01/29 08:14:37;;;;;;;17.43;8.90;;;0.80;99.90;;;;;;6144947;23;21014;-71
2023/01/29 08:17:04;;;;;;;19.23;7.67;;;0.80;99.90;;;;;;6144718;23;20422;-71
2023/01/29 08:19:31;;;;;;;14.00;5.50;;;0.80;99.90;;;;;;6148785;23;20494;-70
2023/01/29 08:21:58;;;;;;;18.27;10.63;;;0.90;99.90;;;;;;6146870;23;21258;-72
2023/01/29 08:24:25;;;;;;;11.60;6.23;;;1.10;99.90;;;;;;6155143;23;20365;-71
2023/01/29 08:26:52;;;;;;;23.60;7.87;;;1.10;99.90;;;;;;6148274;23;20999;-71
2023/01/29 08:29:21;;;;;;;20.43;8.60;;;1.10;99.90;;;;;;6147167;23;20738;-71
2023/01/29 08:31:49;;;;;;;16.07;8.40;;;1.20;99.90;;;;;;6149573;23;20517;-71
2023/01/29 08:34:18;;;;;;;19.53;8.63;;;1.20;99.90;;;;;;6155667;23;20421;-71
2023/01/29 08:36:46;;;;;;;20.73;8.07;;;1.20;99.90;;;;;;6150716;23;20390;-72
2023/01/29 08:39:13;;;;;;;11.37;7.70;;;1.30;99.90;;;;;;6147845;23;20410;-73
2023/01/29 08:41:40;;;;;;;15.80;7.30;;;1.30;99.90;;;;;;6148725;23;20755;-71
2023/01/29 08:44:07;;;;;;;10.53;6.13;;;1.30;99.90;;;;;;6147058;23;20449;-71
2023/01/29 08:46:35;;;;;;;18.67;8.13;;;1.20;99.90;;;;;;6149645;23;20423;-72
2023/01/29 08:49:02;;;;;;;19.93;8.83;;;1.20;99.90;;;;;;6147318;23;20415;-72
2023/01/29 08:51:29;;;;;;;12.03;7.07;;;1.30;99.90;;;;;;6148090;23;20422;-72
2023/01/29 08:53:56;;;;;;;21.17;9.83;;;1.30;99.90;;;;;;6150400;23;21152;-71
2023/01/29 08:56:23;;;;;;;2.73;2.40;;;1.40;99.90;;;;;;6150747;23;20435;-71
2023/01/29 08:58:50;;;;;;;11.17;6.23;;;1.40;99.90;;;;;;6149230;23;20466;-72
2023/01/29 09:01:18;;;;;;;23.10;9.77;;;1.40;99.90;;;;;;6153673;23;20487;-70
2023/01/29 09:03:48;;;;;;;6.47;5.40;;;1.30;99.90;;;;;;6148617;23;20530;-71
2023/01/29 09:06:15;;;;;;;10.93;5.80;;;1.40;99.90;;;;;;6151241;23;20421;-71
2023/01/29 09:08:43;;;;;;;23.00;11.47;;;1.30;99.90;;;;;;6149407;23;20903;-70
2023/01/29 09:11:10;;;;;;;3.53;3.23;;;1.40;99.90;;;;;;6150305;23;20439;-71
2023/01/29 09:13:38;;;;;;;22.50;10.20;;;1.40;99.90;;;;;;6148959;23;20654;-71
2023/01/29 09:16:06;;;;;;;18.93;11.10;;;1.60;99.90;;;;;;6148071;23;20469;-70
2023/01/29 09:18:33;;;;;;;21.30;8.80;;;1.60;99.90;;;;;;6149092;23;20411;-71
2023/01/29 09:21:02;;;;;;;11.40;7.73;;;1.50;99.90;;;;;;6096596;23;20491;-71
2023/01/29 09:23:31;;;;;;;17.57;7.87;;;1.60;99.90;;;;;;6149711;23;20473;-71
2023/01/29 09:25:57;;;;;;;14.93;8.10;;;1.70;99.90;;;;;;6147492;23;20413;-72
2023/01/29 09:28:24;;;;;;;11.20;6.67;;;1.70;99.90;;;;;;6161820;23;20411;-70
2023/01/29 09:30:52;;;;;;;22.03;9.40;;;1.80;99.90;;;;;;6149379;23;21214;-71
2023/01/29 09:33:19;;;;;;;16.87;8.60;;;1.90;99.90;;;;;;6146900;23;20447;-72
2023/01/29 09:35:46;;;;;;;11.70;8.03;;;2.00;99.90;;;;;;6096759;23;20901;-71
2023/01/29 09:38:14;;;;;;;18.07;8.80;;;2.00;99.90;;;;;;6144634;23;20439;-71
2023/01/29 09:40:51;;;;;;;21.20;9.87;;;2.00;99.90;;;;;;6150520;23;20490;-70
2023/01/29 09:43:21;;;;;;;17.50;8.00;;;2.00;99.90;;;;;;6139316;23;20462;-72
2023/01/29 09:45:54;;;;;;;20.93;7.17;;;2.10;99.90;;;;;;6142416;23;20493;-72
2023/01/29 09:48:25;;;;;;;23.40;10.70;;;2.10;99.90;;;;;;6145178;23;20959;-70
2023/01/29 09:50:55;;;;;;;17.30;8.67;;;2.10;99.90;;;;;;6142517;23;20430;-72
2023/01/29 09:53:31;;;;;;;15.60;8.37;;;2.10;99.90;;;;;;6143981;23;21054;-72
2023/01/29 09:56:03;;;;;;;21.33;13.70;;;2.10;99.90;;;;;;6117656;23;20762;-72
2023/01/29 09:58:34;;;;;;;8.37;6.43;;;2.10;99.90;;;;;;6143807;23;20415;-72
2023/01/29 10:01:12;;;;;;;12.80;6.53;;;2.00;99.90;;;;;;6144462;23;20494;-71
2023/01/29 10:03:57;;;;;;;17.70;11.27;;;2.00;99.90;;;;;;6143812;23;20433;-72
2023/01/29 10:06:36;;;;;;;15.33;8.07;;;1.90;99.90;;;;;;6145519;23;20404;-72
2023/01/29 10:09:53;;;;;;;17.03;7.60;;;2.00;99.90;;;;;;6096468;23;20434;-71
2023/01/29 10:12:36;;;;;;;11.73;7.77;;;1.90;99.90;;;;;;6150728;23;20430;-72
2023/01/29 10:15:17;;;;;;;14.27;6.30;;;2.00;99.90;;;;;;6147875;23;20378;-72
2023/01/29 10:17:59;;;;;;;18.77;9.27;;;2.10;99.90;;;;;;6149563;23;20422;-71
2023/01/29 10:20:46;;;;;;;20.17;7.50;;;2.10;99.90;;;;;;6144043;23;20408;-71
2023/01/29 10:23:27;;;;;;;14.97;8.10;;;2.20;99.90;;;;;;6152506;23;20941;-71
2023/01/29 10:25:55;;;;;;;12.93;8.13;;;2.20;99.90;;;;;;6144615;23;21094;-71
2023/01/29 10:28:29;;;;;;;16.60;8.30;;;2.30;99.90;;;;;;6147777;23;20411;-71
2023/01/29 10:31:00;;;;;;;12.97;7.80;;;2.20;99.90;;;;;;6146900;23;20512;-71
2023/01/29 10:33:32;;;;;;;17.60;8.30;;;2.00;99.90;;;;;;6146098;23;20458;-70
2023/01/29 10:36:02;;;;;;;14.30;9.20;;;2.10;99.90;;;;;;6092999;23;21167;-70
2023/01/29 10:38:39;;;;;;;22.70;11.47;;;2.20;99.90;;;;;;6142953;23;20555;-71
2023/01/29 10:41:23;;;;;;;21.00;8.80;;;2.20;99.90;;;;;;6144215;23;20940;-70
2023/01/29 10:44:03;;;;;;;14.20;10.10;;;2.10;99.90;;;;;;6141683;23;20549;-71
2023/01/29 10:46:51;;;;;;;9.83;4.30;;;2.20;99.90;;;;;;6143739;23;20996;-71
2023/01/29 10:49:31;;;;;;;21.63;8.03;;;2.20;99.90;;;;;;6142981;23;20428;-70
2023/01/29 10:52:19;;;;;;;7.13;3.40;;;2.30;99.90;;;;;;6146620;23;20397;-71
2023/01/29 10:55:00;;;;;;;15.67;10.00;;;2.40;99.90;;;;;;6154536;23;20429;-70
2023/01/29 10:57:42;;;;;;;30.93;12.00;;;2.40;99.90;;;;;;6145924;23;20455;-69
2023/01/29 11:00:15;;;;;;;21.37;8.83;;;2.40;99.90;;;;;;6149770;23;20468;-70
2023/01/29 11:02:47;;;;;;;14.27;6.90;;;2.30;99.90;;;;;;6151402;23;20387;-70
2023/01/29 11:05:27;;;;;;;24.40;9.97;;;2.40;99.90;;;;;;6151880;23;20487;-71
2023/01/29 11:08:03;;;;;;;10.87;4.93;;;2.30;99.90;;;;;;6147482;23;20394;-72
2023/01/29 11:10:33;;;;;;;21.00;10.10;;;2.40;99.90;;;;;;6145950;23;20876;-71
2023/01/29 11:13:03;;;;;;;19.07;7.23;;;2.30;99.90;;;;;;6140031;23;20393;-72
2023/01/29 11:15:33;;;;;;;11.37;6.47;;;2.40;99.90;;;;;;6140611;23;21010;-70
2023/01/29 11:18:12;;;;;;;14.43;7.43;;;2.30;99.90;;;;;;6151200;23;21211;-70
2023/01/29 11:20:42;;;;;;;15.93;9.83;;;2.20;99.90;;;;;;6142926;23;20398;-71
2023/01/29 11:23:26;;;;;;;11.93;6.33;;;2.30;99.90;;;;;;6145928;23;20530;-70
2023/01/29 11:25:57;;;;;;;22.73;9.97;;;2.30;99.90;;;;;;6145048;23;20396;-71
2023/01/29 11:28:40;;;;;;;19.60;6.70;;;2.40;99.90;;;;;;6097200;23;20778;-71
2023/01/29 11:31:19;;;;;;;25.23;7.63;;;2.50;99.90;;;;;;6141861;23;20504;-69
2023/01/29 11:33:46;;;;;;;12.80;6.90;;;2.60;99.90;;;;;;6147749;23;20415;-71
2023/01/29 11:36:32;;;;;;;17.53;8.90;;;2.70;99.90;;;;;;6142804;23;20392;-70
2023/01/29 11:39:15;;;;;;;8.00;4.83;;;2.70;99.90;;;;;;6140173;23;20394;-71
2023/01/29 11:41:44;;;;;;;15.63;6.97;;;2.70;99.90;;;;;;6141263;23;20443;-70
2023/01/29 11:44:28;;;;;;;11.23;5.60;;;2.50;99.90;;;;;;6090226;23;20447;-70
2023/01/29 11:46:57;;;;;;;9.87;7.07;;;2.50;99.90;;;;;;6145148;23;20491;-71
2023/01/29 11:49:35;;;;;;;15.03;6.00;;;2.50;99.90;;;;;;6148070;23;20527;-71
2023/01/29 11:52:08;;;;;;;20.10;8.97;;;2.50;99.90;;;;;;6145844;23;20513;-71
2023/01/29 11:54:39;;;;;;;18.00;7.50;;;2.70;99.90;;;;;;6143801;23;20363;-71
2023/01/29 11:57:25;;;;;;;19.40;7.67;;;2.80;99.90;;;;;;6148778;23;20391;-72
2023/01/29 11:59:55;;;;;;;5.40;5.03;;;2.90;99.90;;;;;;6146329;23;21225;-71
2023/01/29 12:02:34;;;;;;;12.37;5.93;;;2.90;99.90;;;;;;6146581;23;20523;-71
2023/01/29 12:05:06;;;;;;;17.50;12.50;;;2.90;99.90;;;;;;6145831;23;20407;-71
2023/01/29 12:07:34;;;;;;;14.03;8.03;;;2.80;99.90;;;;;;6146724;23;20492;-71
2023/01/29 12:10:03;;;;;;;16.60;9.50;;;2.90;99.90;;;;;;6151959;23;20426;-71
2023/01/29 12:12:38;;;;;;;26.33;9.03;;;2.90;99.90;;;;;;6154092;23;21000;-69
2023/01/29 12:15:17;;;;;;;21.43;8.73;;;2.80;99.90;;;;;;6150211;23;20400;-71
2023/01/29 12:17:53;;;;;;;9.40;5.07;;;2.70;99.90;;;;;;6153912;23;20390;-70
2023/01/29 12:20:27;;;;;;;16.23;8.23;;;2.90;99.90;;;;;;6148520;23;20394;-70
2023/01/29 12:23:00;;;;;;;14.17;5.53;;;2.90;99.90;;;;;;6154635;23;20427;-71
2023/01/29 12:25:40;;;;;;;31.80;11.20;;;2.90;99.90;;;;;;6153143;23;20501;-72
2023/01/29 12:28:16;;;;;;;11.40;6.10;;;2.90;99.90;;;;;;6152171;23;20375;-70
2023/01/29 12:30:54;;;;;;;14.07;10.87;;;3.00;99.90;;;;;;6146425;23;20356;-70
2023/01/29 12:33:39;;;;;;;15.80;6.60;;;3.00;99.90;;;;;;6144756;23;20455;-71
2023/01/29 12:36:14;;;;;;;7.60;3.47;;;3.10;99.90;;;;;;6146514;23;20409;-71
2023/01/29 12:38:44;;;;;;;13.57;8.23;;;3.20;99.90;;;;;;6144794;23;20778;-71
2023/01/29 12:41:28;;;;;;;15.17;6.47;;;3.20;99.90;;;;;;6146603;23;20459;-70
2023/01/29 12:43:59;;;;;;;20.50;7.80;;;3.20;99.90;;;;;;6144324;23;20439;-70
2023/01/29 12:46:31;;;;;;;19.20;8.63;;;3.30;99.90;;;;;;6100557;23;20412;-71
2023/01/29 12:49:04;;;;;;;11.23;6.87;;;3.50;99.90;;;;;;6153790;23;20437;-70
2023/01/29 12:51:37;;;;;;;14.83;6.30;;;3.50;99.90;;;;;;6144540;23;20477;-71
2023/01/29 12:54:09;;;;;;;16.17;8.33;;;3.50;99.90;;;;;;6146190;23;20392;-70
2023/01/29 12:56:40;;;;;;;12.17;6.87;;;3.40;99.90;;;;;;6151867;23;20454;-70
2023/01/29 12:59:17;;;;;;;13.13;5.57;;;3.40;99.90;;;;;;6151277;23;20845;-70
2023/01/29 13:01:52;;;;;;;19.37;9.50;;;3.30;99.90;;;;;;6149463;23;20420;-70
2023/01/29 13:04:25;;;;;;;16.50;8.40;;;3.50;99.90;;;;;;6150288;23;20511;-71
2023/01/29 13:06:58;;;;;;;14.63;5.93;;;3.60;99.90;;;;;;6125167;23;20379;-71
2023/01/29 13:09:28;;;;;;;10.60;2.90;;;3.60;99.90;;;;;;6160680;23;20378;-72
2023/01/29 13:12:00;;;;;;;7.70;5.97;;;3.50;99.90;;;;;;6145528;23;20493;-71
2023/01/29 13:14:33;;;;;;;16.33;6.40;;;3.50;99.90;;;;;;6143784;23;20760;-71
2023/01/29 13:17:09;;;;;;;15.23;7.87;;;3.40;99.90;;;;;;6142784;23;20486;-68
2023/01/29 13:19:44;;;;;;;7.97;4.03;;;3.40;99.90;;;;;;6153700;23;20389;-70
2023/01/29 13:22:19;;;;;;;26.03;9.60;;;3.30;99.90;;;;;;6024850;23;21098;-70
2023/01/29 13:24:46;;;;;;;4.13;2.30;;;3.10;99.90;;;;;;6095154;23;20457;-70
2023/01/29 13:27:22;;;;;;;16.67;6.40;;;3.00;99.90;;;;;;6155866;23;20432;-70
2023/01/29 13:29:49;;;;;;;21.20;6.60;;;3.10;99.90;;;;;;6145481;23;20796;-71
2023/01/29 13:32:24;;;;;;;6.40;4.50;;;3.20;99.90;;;;;;6095038;23;20435;-72
2023/01/29 13:34:53;;;;;;;11.87;6.00;;;3.10;99.90;;;;;;6145415;23;20391;-70